Time;durP1;ratioP1;P1;durP2;ratioP2;P2;SDS_P1;SDS_P2;PMS_P1;PMS_P2;Temp;Humidity;BMP_temperature;BMP_pressure;BME280_temperature;BME280_humidity;BME280_pressure;Samples;Min_cycle;Max_cycle;Signal;HPM_P1;HPM_P2
2024/03/25 00:02:08;;;;;;;16.53;2.60;;;5.10;99.90;;;;;;5032242;28;20113;-85
2024/03/25 00:04:33;;;;;;;16.53;2.77;;;5.10;99.90;;;;;;5031994;28;20025;-85
2024/03/25 00:06:59;;;;;;;15.97;2.93;;;5.00;99.90;;;;;;5032916;28;20021;-86
2024/03/25 00:09:24;;;;;;;19.10;2.87;;;5.00;99.90;;;;;;5033307;28;20053;-86
2024/03/25 00:11:54;;;;;;;18.57;2.53;;;5.00;99.90;;;;;;5033276;28;20029;-87
2024/03/25 00:14:20;;;;;;;12.20;2.47;;;5.00;99.90;;;;;;5031858;28;20117;-84
2024/03/25 00:16:46;;;;;;;14.77;2.10;;;5.10;99.90;;;;;;5033077;28;20031;-87
2024/03/25 00:19:12;;;;;;;16.63;2.60;;;5.00;99.90;;;;;;5031997;28;20487;-86
2024/03/25 00:21:38;;;;;;;13.43;2.10;;;5.00;99.90;;;;;;5033171;28;20473;-85
2024/03/25 00:24:04;;;;;;;15.30;1.80;;;5.00;99.90;;;;;;5031805;28;20071;-86
2024/03/25 00:26:29;;;;;;;14.80;2.60;;;4.90;99.90;;;;;;5033286;28;20040;-86
2024/03/25 00:28:55;;;;;;;9.77;2.40;;;4.90;99.90;;;;;;5033239;28;20030;-87
2024/03/25 00:31:20;;;;;;;17.77;2.57;;;4.90;99.90;;;;;;5031746;28;20018;-86
2024/03/25 00:33:46;;;;;;;16.00;1.97;;;4.90;99.90;;;;;;5031899;28;20032;-85
2024/03/25 00:36:12;;;;;;;18.33;3.10;;;4.90;99.90;;;;;;5033259;28;20389;-86
2024/03/25 00:38:38;;;;;;;19.00;2.70;;;4.80;99.90;;;;;;5026837;28;20485;-86
2024/03/25 00:41:04;;;;;;;18.93;3.00;;;4.90;99.90;;;;;;5014171;28;20116;-85
2024/03/25 00:43:29;;;;;;;18.63;3.17;;;4.80;99.90;;;;;;5015176;28;20046;-85
2024/03/25 00:45:56;;;;;;;19.00;2.63;;;4.80;99.90;;;;;;5013442;28;20053;-87
2024/03/25 00:48:22;;;;;;;18.10;2.80;;;4.80;99.90;;;;;;5013417;28;20034;-85
2024/03/25 00:50:48;;;;;;;17.17;2.93;;;4.80;99.90;;;;;;5012952;28;20018;-86
2024/03/25 00:53:14;;;;;;;15.63;2.70;;;4.80;99.90;;;;;;5013283;28;20021;-87
2024/03/25 00:55:40;;;;;;;21.13;3.20;;;4.70;99.90;;;;;;5013810;28;20382;-87
2024/03/25 00:58:06;;;;;;;15.37;3.33;;;4.80;99.90;;;;;;5013734;28;20033;-87
2024/03/25 01:00:31;;;;;;;13.53;2.80;;;4.70;99.90;;;;;;5013590;28;20034;-86
2024/03/25 01:02:57;;;;;;;22.73;3.50;;;4.70;99.90;;;;;;5028961;28;20014;-87
2024/03/25 01:05:22;;;;;;;20.27;3.37;;;4.70;99.90;;;;;;5013564;28;20034;-86
2024/03/25 01:07:48;;;;;;;18.77;3.00;;;4.70;99.90;;;;;;5011903;28;20014;-85
2024/03/25 01:10:15;;;;;;;16.73;2.27;;;4.70;99.90;;;;;;5013149;28;20014;-87
2024/03/25 01:12:41;;;;;;;18.43;2.47;;;4.60;99.90;;;;;;5011775;28;20022;-87
2024/03/25 01:15:09;;;;;;;17.10;3.20;;;4.70;99.90;;;;;;5013806;28;20033;-87
2024/03/25 01:17:36;;;;;;;19.47;3.40;;;4.60;99.90;;;;;;5016751;28;20022;-86
2024/03/25 01:20:01;;;;;;;20.77;2.53;;;4.60;99.90;;;;;;5016733;28;20026;-86
2024/03/25 01:22:27;;;;;;;17.43;2.47;;;4.60;99.90;;;;;;5016522;28;20026;-87
2024/03/25 01:24:53;;;;;;;16.07;2.93;;;4.60;99.90;;;;;;5016863;28;20109;-86
2024/03/25 01:27:19;;;;;;;18.97;3.77;;;4.60;99.90;;;;;;5015523;28;20129;-87
2024/03/25 01:29:44;;;;;;;19.70;3.03;;;4.50;99.90;;;;;;5032359;28;20018;-87
2024/03/25 01:32:10;;;;;;;14.40;2.77;;;4.50;99.90;;;;;;5017057;28;20048;-87
2024/03/25 01:34:35;;;;;;;16.50;3.53;;;4.50;99.90;;;;;;5017108;28;20134;-87
2024/03/25 01:37:01;;;;;;;17.43;3.03;;;4.50;99.90;;;;;;5015919;28;20030;-87
2024/03/25 01:39:27;;;;;;;16.47;3.23;;;4.50;99.90;;;;;;5017735;28;20433;-87
2024/03/25 01:41:52;;;;;;;15.60;2.67;;;4.50;99.90;;;;;;5016253;28;20033;-87
2024/03/25 01:44:18;;;;;;;15.57;2.37;;;4.50;99.90;;;;;;5016974;28;20050;-87
2024/03/25 01:46:44;;;;;;;16.27;3.27;;;4.40;99.90;;;;;;5016612;28;20056;-88
2024/03/25 01:49:10;;;;;;;21.87;2.93;;;4.40;99.90;;;;;;5018601;28;20018;-87
2024/03/25 01:51:38;;;;;;;14.83;2.97;;;4.40;99.90;;;;;;5017581;28;20572;-87
2024/03/25 01:54:05;;;;;;;26.03;2.73;;;4.40;99.90;;;;;;5017151;28;20030;-87
2024/03/25 01:56:33;;;;;;;17.33;3.60;;;4.40;99.90;;;;;;5015723;28;20022;-87
2024/03/25 01:59:00;;;;;;;15.83;3.27;;;4.40;99.90;;;;;;5016249;28;20113;-87
2024/03/25 02:01:26;;;;;;;11.23;2.47;;;4.40;99.90;;;;;;5015736;28;20505;-87
2024/03/25 02:03:54;;;;;;;16.53;3.03;;;4.40;99.90;;;;;;5016002;28;20117;-87
2024/03/25 02:06:21;;;;;;;17.57;2.83;;;4.40;99.90;;;;;;5015668;28;20030;-87
2024/03/25 02:08:49;;;;;;;25.40;3.27;;;4.40;99.90;;;;;;5031161;28;20499;-87
2024/03/25 02:11:15;;;;;;;15.53;2.17;;;4.40;99.90;;;;;;5015798;28;20022;-88
2024/03/25 02:13:41;;;;;;;19.63;3.07;;;4.40;99.90;;;;;;5015923;28;20018;-88
2024/03/25 02:16:07;;;;;;;22.60;3.10;;;4.30;99.90;;;;;;5015722;28;20038;-87
2024/03/25 02:18:33;;;;;;;15.83;2.43;;;4.30;99.90;;;;;;5015731;28;20553;-87
2024/03/25 02:20:59;;;;;;;10.97;1.80;;;4.40;99.90;;;;;;5015509;28;20105;-87
2024/03/25 02:23:25;;;;;;;16.97;3.10;;;4.30;99.90;;;;;;5014323;28;20065;-88
2024/03/25 02:25:54;;;;;;;15.70;2.57;;;4.20;99.90;;;;;;5014907;28;20466;-88
2024/03/25 02:28:20;;;;;;;13.03;2.60;;;4.20;99.90;;;;;;5014688;28;20022;-87
2024/03/25 02:30:46;;;;;;;23.10;2.93;;;4.20;99.90;;;;;;5014236;28;20034;-88
2024/03/25 02:33:11;;;;;;;26.93;3.47;;;4.20;99.90;;;;;;5015456;28;20505;-87
2024/03/25 02:35:40;;;;;;;14.40;2.60;;;4.20;99.90;;;;;;5014275;28;20022;-88
2024/03/25 02:38:06;;;;;;;12.43;2.47;;;4.20;99.90;;;;;;5014162;28;20366;-88
2024/03/25 02:40:33;;;;;;;9.87;2.20;;;4.10;99.90;;;;;;5015322;28;20022;-87
2024/03/25 02:42:59;;;;;;;19.53;3.00;;;4.20;99.90;;;;;;5015363;28;20050;-87
2024/03/25 02:45:25;;;;;;;19.73;2.97;;;4.20;99.90;;;;;;5015144;28;20030;-87
2024/03/25 02:47:51;;;;;;;15.60;2.47;;;4.20;99.90;;;;;;5015041;28;20397;-88
2024/03/25 02:50:17;;;;;;;15.77;3.03;;;4.10;99.90;;;;;;5015311;28;20413;-87
2024/03/25 02:52:42;;;;;;;17.13;3.43;;;4.20;99.90;;;;;;5015216;28;20026;-87
2024/03/25 02:55:08;;;;;;;21.53;5.23;;;4.20;99.90;;;;;;5014691;28;20108;-85
2024/03/25 02:57:34;;;;;;;18.57;3.33;;;4.10;99.90;;;;;;5030102;28;20072;-86
2024/03/25 02:59:59;;;;;;;14.43;2.20;;;4.10;99.90;;;;;;5014875;28;20076;-87
2024/03/25 03:02:25;;;;;;;15.07;3.07;;;4.10;99.90;;;;;;5014812;28;20029;-86
2024/03/25 03:04:51;;;;;;;12.37;3.10;;;4.10;99.90;;;;;;5014835;28;20466;-86
2024/03/25 03:07:16;;;;;;;16.87;2.60;;;4.20;99.90;;;;;;5014960;28;20029;-87
2024/03/25 03:09:42;;;;;;;24.40;3.40;;;4.10;99.90;;;;;;5014508;28;20029;-87
2024/03/25 03:12:08;;;;;;;18.33;2.63;;;4.10;99.90;;;;;;5014429;28;20030;-87
2024/03/25 03:14:34;;;;;;;18.53;3.23;;;4.10;99.90;;;;;;5013270;28;20363;-86
2024/03/25 03:16:59;;;;;;;15.27;2.60;;;4.10;99.90;;;;;;5014608;28;20030;-87
2024/03/25 03:19:28;;;;;;;18.03;2.50;;;4.20;99.90;;;;;;5015105;28;20037;-87
2024/03/25 03:21:54;;;;;;;16.83;2.40;;;4.10;99.90;;;;;;5013203;28;20117;-87
2024/03/25 03:24:20;;;;;;;12.90;2.97;;;4.10;99.90;;;;;;5014709;28;20049;-87
2024/03/25 03:26:45;;;;;;;14.27;2.17;;;4.20;99.90;;;;;;5015077;28;20022;-87
2024/03/25 03:29:11;;;;;;;20.83;3.43;;;4.10;99.90;;;;;;5014784;28;20568;-87
2024/03/25 03:31:37;;;;;;;16.77;2.93;;;4.10;99.90;;;;;;5013349;28;20026;-86
2024/03/25 03:34:03;;;;;;;12.93;3.30;;;4.10;99.90;;;;;;5015241;28;20092;-87
2024/03/25 03:36:28;;;;;;;16.63;2.50;;;4.10;99.90;;;;;;5015222;28;20061;-87
2024/03/25 03:38:54;;;;;;;14.43;2.67;;;4.10;99.90;;;;;;5014052;28;20033;-86
2024/03/25 03:41:20;;;;;;;17.77;3.43;;;4.10;99.90;;;;;;5014751;28;20060;-86
2024/03/25 03:43:46;;;;;;;15.70;3.37;;;4.10;99.90;;;;;;5012797;28;20069;-86
2024/03/25 03:46:11;;;;;;;20.83;3.20;;;4.10;99.90;;;;;;5014063;28;20130;-87
2024/03/25 03:48:38;;;;;;;19.33;3.43;;;4.10;99.90;;;;;;5014050;28;20026;-86
2024/03/25 03:51:07;;;;;;;18.43;3.20;;;4.10;99.90;;;;;;5029640;28;20044;-86
2024/03/25 03:53:34;;;;;;;16.07;3.60;;;4.10;99.90;;;;;;5014026;28;20474;-86
2024/03/25 03:56:06;;;;;;;19.33;3.87;;;4.00;99.90;;;;;;5029486;28;20169;-86
2024/03/25 03:58:32;;;;;;;17.00;3.33;;;4.10;99.90;;;;;;5013845;28;20041;-86
2024/03/25 04:00:58;;;;;;;17.10;3.97;;;4.10;99.90;;;;;;5029534;28;20030;-86
2024/03/25 04:03:24;;;;;;;16.37;3.47;;;4.10;99.90;;;;;;5012767;28;20036;-86
2024/03/25 04:05:49;;;;;;;14.20;2.93;;;4.10;99.90;;;;;;5013738;28;20038;-86
2024/03/25 04:08:15;;;;;;;15.03;3.63;;;4.10;99.90;;;;;;5012513;28;20037;-86
2024/03/25 04:10:42;;;;;;;21.20;4.07;;;4.10;99.90;;;;;;5012859;28;20025;-86
2024/03/25 04:13:07;;;;;;;22.27;3.73;;;4.10;99.90;;;;;;5013615;28;20036;-87
2024/03/25 04:15:34;;;;;;;20.67;3.77;;;4.10;99.90;;;;;;5013729;28;20474;-86
2024/03/25 04:18:00;;;;;;;18.50;4.00;;;4.10;99.90;;;;;;5013800;28;20105;-87
2024/03/25 04:20:28;;;;;;;18.63;5.53;;;4.10;99.90;;;;;;5012629;28;20177;-87
2024/03/25 04:22:53;;;;;;;14.63;3.27;;;4.10;99.90;;;;;;5014000;28;20057;-87
2024/03/25 04:25:19;;;;;;;18.87;4.10;;;4.10;99.90;;;;;;5012602;28;20042;-87
2024/03/25 04:27:45;;;;;;;22.87;6.47;;;4.00;99.90;;;;;;5013789;28;20022;-88
2024/03/25 04:30:11;;;;;;;20.27;4.10;;;4.00;99.90;;;;;;5014050;28;20029;-88
2024/03/25 04:32:38;;;;;;;17.23;4.80;;;4.00;99.90;;;;;;5013720;28;20033;-87
2024/03/25 04:35:06;;;;;;;21.53;3.97;;;4.00;99.90;;;;;;5013716;28;20037;-86
2024/03/25 04:37:32;;;;;;;18.63;4.67;;;4.00;99.90;;;;;;5028938;28;20514;-87
2024/03/25 04:39:58;;;;;;;15.13;3.67;;;4.00;99.90;;;;;;5013739;28;20033;-87
2024/03/25 04:42:23;;;;;;;21.07;4.80;;;3.90;99.90;;;;;;5028918;28;20021;-87
2024/03/25 04:44:50;;;;;;;17.03;4.47;;;3.90;99.90;;;;;;5020223;28;20504;-87
2024/03/25 04:47:16;;;;;;;22.13;5.20;;;3.90;99.90;;;;;;5033651;28;20028;-87
2024/03/25 04:49:42;;;;;;;17.37;4.57;;;3.90;99.90;;;;;;5033202;28;20025;-88
2024/03/25 04:52:08;;;;;;;22.03;5.77;;;3.90;99.90;;;;;;5037309;28;20084;-87
2024/03/25 04:54:34;;;;;;;18.63;5.17;;;3.90;99.90;;;;;;5036697;28;20065;-88
2024/03/25 04:56:59;;;;;;;23.33;5.30;;;3.90;99.90;;;;;;5036955;28;20024;-87
2024/03/25 04:59:25;;;;;;;18.93;4.90;;;3.80;99.90;;;;;;5037022;28;20072;-87
2024/03/25 05:01:51;;;;;;;22.10;5.03;;;3.80;99.90;;;;;;5036007;28;20026;-87
2024/03/25 05:04:18;;;;;;;18.47;5.10;;;3.80;99.90;;;;;;5036244;28;20109;-87
2024/03/25 05:06:43;;;;;;;23.30;5.10;;;3.80;99.90;;;;;;5029884;28;20413;-88
2024/03/25 05:09:10;;;;;;;17.80;5.17;;;3.80;99.90;;;;;;5036991;28;20084;-88
2024/03/25 05:11:35;;;;;;;23.73;5.03;;;3.80;99.90;;;;;;5036773;28;20101;-88
2024/03/25 05:14:01;;;;;;;25.53;5.80;;;3.80;99.90;;;;;;5036659;28;20049;-86
2024/03/25 05:16:27;;;;;;;23.43;5.00;;;3.80;99.90;;;;;;5035502;28;20481;-87
2024/03/25 05:18:52;;;;;;;13.23;4.20;;;3.70;99.90;;;;;;5035760;28;20022;-87
2024/03/25 05:21:18;;;;;;;19.13;5.17;;;3.70;99.90;;;;;;5036780;28;20018;-87
2024/03/25 05:23:44;;;;;;;15.53;3.57;;;3.70;99.90;;;;;;5037206;28;20022;-87
2024/03/25 05:26:09;;;;;;;12.97;4.33;;;3.70;99.90;;;;;;5036461;28;20107;-87
2024/03/25 05:28:35;;;;;;;17.80;4.80;;;3.70;99.90;;;;;;5036563;28;20551;-87
2024/03/25 05:31:08;;;;;;;15.73;4.60;;;3.70;99.90;;;;;;5034965;28;20045;-86
2024/03/25 05:33:33;;;;;;;22.93;4.30;;;3.70;99.90;;;;;;5035300;28;20087;-87
2024/03/25 05:36:00;;;;;;;19.07;5.63;;;3.70;99.90;;;;;;5036297;28;20489;-87
2024/03/25 05:38:26;;;;;;;16.57;4.47;;;3.70;99.90;;;;;;5036186;28;20516;-88
2024/03/25 05:40:52;;;;;;;11.97;4.20;;;3.70;99.90;;;;;;5034938;28;20029;-86
2024/03/25 05:43:17;;;;;;;18.10;4.20;;;3.70;99.90;;;;;;5035635;28;20145;-87
2024/03/25 05:45:56;;;;;;;22.03;4.63;;;3.70;99.90;;;;;;5035796;28;20112;-86
2024/03/25 05:48:24;;;;;;;17.20;3.50;;;3.70;99.90;;;;;;5035869;28;20028;-87
2024/03/25 05:51:14;;;;;;;16.43;4.67;;;3.70;99.90;;;;;;5036079;28;20014;-83
2024/03/25 05:53:40;;;;;;;17.50;3.60;;;3.70;99.90;;;;;;5033826;28;20029;-80
2024/03/25 05:56:06;;;;;;;15.20;4.03;;;3.70;99.90;;;;;;5034045;28;20112;-81
2024/03/25 05:58:31;;;;;;;17.80;4.53;;;3.70;99.90;;;;;;5033793;28;20060;-81
2024/03/25 06:00:57;;;;;;;18.90;3.90;;;3.90;99.90;;;;;;5034860;28;20079;-82
2024/03/25 06:03:23;;;;;;;19.37;4.53;;;3.70;99.90;;;;;;5033214;28;20544;-80
2024/03/25 06:05:49;;;;;;;18.87;3.70;;;3.70;99.90;;;;;;5033620;28;20026;-80
2024/03/25 06:08:24;;;;;;;16.73;4.60;;;3.70;99.90;;;;;;5034735;28;20060;-80
2024/03/25 06:10:49;;;;;;;17.93;3.73;;;3.70;99.90;;;;;;5034886;28;20116;-80
2024/03/25 06:13:15;;;;;;;14.27;3.73;;;3.90;99.90;;;;;;5034446;28;20529;-80
2024/03/25 06:15:41;;;;;;;17.77;3.87;;;3.80;99.90;;;;;;5033403;28;20060;-81
2024/03/25 06:18:07;;;;;;;15.83;4.33;;;3.90;99.90;;;;;;5034113;28;20020;-81
2024/03/25 06:20:32;;;;;;;9.53;3.50;;;3.80;99.90;;;;;;5028344;28;20109;-80
2024/03/25 06:22:58;;;;;;;19.10;4.20;;;3.90;99.90;;;;;;5023615;28;20485;-80
2024/03/25 06:25:23;;;;;;;19.10;4.67;;;3.90;99.90;;;;;;5025467;28;20044;-80
2024/03/25 06:27:49;;;;;;;16.20;4.30;;;4.00;99.90;;;;;;5030085;28;20053;-81
2024/03/25 06:35:45;;;;;;;18.73;4.32;;;4.00;99.90;;;;;;5014184;28;20065;-81
2024/03/25 06:38:11;;;;;;;15.67;4.00;;;4.10;99.90;;;;;;5014441;28;20081;-81
2024/03/25 06:40:38;;;;;;;12.07;3.30;;;4.10;99.90;;;;;;5024779;28;20034;-81
2024/03/25 06:43:04;;;;;;;14.43;3.43;;;4.10;99.90;;;;;;5013077;28;20041;-82
2024/03/25 06:45:29;;;;;;;13.27;3.27;;;4.20;99.90;;;;;;5029218;28;20539;-81
2024/03/25 06:47:55;;;;;;;17.40;4.00;;;4.20;99.90;;;;;;5029561;28;20026;-81
2024/03/25 06:50:23;;;;;;;15.83;4.77;;;4.30;99.90;;;;;;5014248;28;20032;-81
2024/03/25 06:52:49;;;;;;;13.17;3.80;;;4.40;99.90;;;;;;5014254;28;20128;-81
2024/03/25 06:55:15;;;;;;;22.30;3.77;;;4.30;99.90;;;;;;5029269;28;20494;-81
2024/03/25 06:57:40;;;;;;;22.37;4.57;;;4.40;99.90;;;;;;5018636;28;20030;-82
2024/03/25 07:00:10;;;;;;;21.83;4.17;;;4.50;99.90;;;;;;5031805;28;20025;-82
2024/03/25 07:02:36;;;;;;;14.80;3.37;;;4.50;99.90;;;;;;5033206;28;20079;-81
2024/03/25 07:05:02;;;;;;;19.63;3.47;;;4.60;99.90;;;;;;5033666;28;20034;-82
2024/03/25 07:07:27;;;;;;;19.50;4.43;;;4.60;99.90;;;;;;5033274;28;20109;-81
2024/03/25 07:09:54;;;;;;;14.60;4.30;;;4.60;99.90;;;;;;5032815;28;20067;-81
2024/03/25 07:12:20;;;;;;;16.63;3.60;;;4.70;99.90;;;;;;5032675;28;20461;-82
2024/03/25 07:14:45;;;;;;;13.20;3.30;;;4.70;99.90;;;;;;5030975;28;20022;-81
2024/03/25 07:17:11;;;;;;;20.93;3.67;;;4.70;99.90;;;;;;5033090;28;20028;-81
2024/03/25 07:19:36;;;;;;;13.87;4.03;;;4.80;99.90;;;;;;5032989;28;20472;-81
2024/03/25 07:22:02;;;;;;;18.80;4.23;;;4.80;99.90;;;;;;5033589;28;20033;-81
2024/03/25 07:24:28;;;;;;;18.77;3.67;;;4.90;99.90;;;;;;5034852;28;20370;-81
2024/03/25 07:26:53;;;;;;;21.87;4.43;;;4.90;99.90;;;;;;5032807;28;20040;-81
2024/03/25 07:29:19;;;;;;;16.83;4.43;;;5.00;99.90;;;;;;5033209;28;20029;-82
2024/03/25 07:31:45;;;;;;;13.40;3.37;;;5.00;99.90;;;;;;5032598;28;20496;-82
2024/03/25 07:34:11;;;;;;;24.33;5.00;;;5.10;99.90;;;;;;5032371;28;20034;-81
2024/03/25 07:36:38;;;;;;;11.20;3.50;;;5.10;99.90;;;;;;5030345;28;20072;-81
2024/03/25 07:39:05;;;;;;;14.20;3.77;;;5.30;99.90;;;;;;5031183;28;20033;-82
2024/03/25 07:41:31;;;;;;;16.03;4.47;;;5.20;99.90;;;;;;5030317;28;20021;-84
2024/03/25 07:43:57;;;;;;;17.13;3.97;;;5.30;99.90;;;;;;5032890;28;20507;-82
2024/03/25 07:46:22;;;;;;;20.17;3.97;;;5.30;99.90;;;;;;5032186;28;20029;-82
2024/03/25 07:48:48;;;;;;;19.03;3.93;;;5.30;99.90;;;;;;5033781;28;20030;-82
2024/03/25 07:51:14;;;;;;;19.67;4.13;;;5.40;99.90;;;;;;5028242;28;20032;-82
2024/03/25 07:53:39;;;;;;;18.40;3.77;;;5.40;99.90;;;;;;5032344;28;20458;-82
2024/03/25 07:56:05;;;;;;;22.20;5.00;;;5.50;99.90;;;;;;5033856;28;20037;-82
2024/03/25 07:58:31;;;;;;;18.30;4.40;;;5.50;99.90;;;;;;5034118;28;20039;-82
2024/03/25 08:00:56;;;;;;;17.00;3.93;;;5.60;99.90;;;;;;5033516;28;20160;-82
2024/03/25 08:03:25;;;;;;;14.70;3.60;;;5.70;99.90;;;;;;5035346;28;20037;-82
2024/03/25 08:05:50;;;;;;;12.67;3.87;;;5.70;99.90;;;;;;5033430;28;20113;-82
2024/03/25 08:08:16;;;;;;;18.70;4.73;;;5.80;99.90;;;;;;5034821;28;20090;-81
2024/03/25 08:10:42;;;;;;;15.93;3.80;;;5.90;99.90;;;;;;5034015;28;20043;-82
2024/03/25 08:13:07;;;;;;;17.23;3.33;;;5.90;99.90;;;;;;5033684;28;20081;-82
2024/03/25 08:15:33;;;;;;;16.07;4.90;;;6.10;99.90;;;;;;5034614;28;20470;-82
2024/03/25 08:17:59;;;;;;;23.07;4.17;;;6.10;99.90;;;;;;5033259;28;20374;-81
2024/03/25 08:20:24;;;;;;;19.20;4.27;;;6.20;99.90;;;;;;5035678;28;20067;-82
2024/03/25 08:22:50;;;;;;;18.33;4.80;;;6.30;99.90;;;;;;5035270;28;20025;-82
2024/03/25 08:25:15;;;;;;;15.90;4.67;;;6.40;99.90;;;;;;5035949;28;20103;-81
2024/03/25 08:27:42;;;;;;;11.10;2.60;;;6.40;99.90;;;;;;5037270;28;20071;-81
2024/03/25 08:30:08;;;;;;;14.87;3.63;;;6.50;99.90;;;;;;5038385;28;20128;-79
2024/03/25 08:32:33;;;;;;;14.90;4.67;;;6.60;99.90;;;;;;5037677;28;20096;-82
2024/03/25 08:34:59;;;;;;;15.67;5.10;;;6.70;99.90;;;;;;5037627;28;20029;-81
2024/03/25 08:37:24;;;;;;;24.67;4.60;;;6.80;99.90;;;;;;5037312;28;20100;-82
2024/03/25 08:39:50;;;;;;;19.23;5.27;;;6.80;99.90;;;;;;5035794;28;20021;-82
2024/03/25 08:42:16;;;;;;;14.93;4.17;;;6.90;99.90;;;;;;5034947;28;20032;-80
2024/03/25 08:44:41;;;;;;;20.17;4.67;;;7.00;99.90;;;;;;5036135;28;20578;-80
2024/03/25 08:47:07;;;;;;;23.23;5.10;;;7.10;99.90;;;;;;5037963;28;20033;-80
2024/03/25 08:49:33;;;;;;;16.33;4.03;;;7.20;99.90;;;;;;5037285;28;20485;-80
2024/03/25 08:52:01;;;;;;;13.67;3.97;;;7.30;99.90;;;;;;5039148;28;20056;-80
2024/03/25 08:54:28;;;;;;;15.57;3.30;;;7.40;99.90;;;;;;5036887;28;20025;-80
2024/03/25 08:56:53;;;;;;;19.33;4.97;;;7.40;99.90;;;;;;5037239;28;20045;-81
2024/03/25 08:59:19;;;;;;;18.03;3.93;;;7.60;99.90;;;;;;5035846;28;20540;-81
2024/03/25 09:01:44;;;;;;;11.33;3.93;;;7.70;99.90;;;;;;5035012;28;20076;-81
2024/03/25 09:04:10;;;;;;;13.27;4.17;;;7.80;99.90;;;;;;5037059;28;20029;-80
2024/03/25 09:06:36;;;;;;;11.80;4.33;;;7.90;99.90;;;;;;5036562;28;20033;-82
2024/03/25 09:11:47;;;;;;;18.80;4.32;;;8.10;99.90;;;;;;5027755;28;20056;-81
2024/03/25 09:14:12;;;;;;;17.97;5.70;;;8.30;99.90;;;;;;5057471;28;20025;-80
2024/03/25 09:16:38;;;;;;;18.53;5.27;;;8.40;99.90;;;;;;5055660;28;20048;-80
2024/03/25 09:19:04;;;;;;;17.07;5.97;;;8.40;99.90;;;;;;5030976;28;20037;-82
2024/03/25 09:21:29;;;;;;;12.23;3.40;;;8.50;99.90;;;;;;5032781;28;20418;-81
2024/03/25 09:23:57;;;;;;;17.10;4.37;;;8.60;99.90;;;;;;5035838;28;20021;-81
2024/03/25 09:26:23;;;;;;;17.70;3.70;;;8.70;99.90;;;;;;5034409;28;20025;-80
2024/03/25 09:28:49;;;;;;;22.03;4.53;;;8.80;99.90;;;;;;5035931;28;20025;-81
2024/03/25 09:31:15;;;;;;;12.73;3.20;;;8.90;99.90;;;;;;5036971;28;20029;-80
2024/03/25 09:33:40;;;;;;;18.00;3.77;;;8.90;99.90;;;;;;5035577;28;20116;-82
2024/03/25 09:36:06;;;;;;;16.77;4.10;;;9.00;99.90;;;;;;5035881;28;20025;-80
2024/03/25 09:38:32;;;;;;;12.40;3.30;;;9.10;99.90;;;;;;5034541;28;20075;-80
2024/03/25 09:40:58;;;;;;;14.47;3.33;;;9.30;99.90;;;;;;5034506;28;20053;-80
2024/03/25 09:43:31;;;;;;;12.85;3.22;;;9.50;99.90;;;;;;5034592;28;20076;-81
2024/03/25 09:45:58;;;;;;;15.65;2.42;;;9.60;99.90;;;;;;5036250;28;20040;-81
2024/03/25 09:48:24;;;;;;;13.43;2.92;;;9.70;99.90;;;;;;5036134;28;20436;-81
2024/03/25 09:50:52;;;;;;;13.77;2.88;;;9.90;99.90;;;;;;5035620;28;20065;-83
2024/03/25 09:53:18;;;;;;;13.18;3.33;;;10.00;99.90;;;;;;5036797;28;20033;-82
2024/03/25 09:55:46;;;;;;;10.13;2.47;;;10.10;99.90;;;;;;5036211;28;20043;-80
2024/03/25 09:58:17;;;;;;;12.02;3.10;;;10.20;99.90;;;;;;5036165;28;20063;-82
2024/03/25 10:00:43;;;;;;;10.32;2.38;;;10.40;99.90;;;;;;5034123;28;20369;-81
2024/03/25 10:03:09;;;;;;;14.60;3.13;;;10.50;99.90;;;;;;5035219;28;20033;-81
2024/03/25 10:05:34;;;;;;;12.93;2.90;;;10.70;99.90;;;;;;5034944;28;20588;-82
2024/03/25 10:08:00;;;;;;;14.10;2.75;;;10.80;99.90;;;;;;5034913;28;20025;-81
2024/03/25 10:10:26;;;;;;;16.73;2.67;;;10.90;99.90;;;;;;5033983;28;20449;-80
2024/03/25 10:13:03;;;;;;;22.60;3.22;;;11.10;99.90;;;;;;5035432;28;20041;-82
2024/03/25 10:15:29;;;;;;;7.28;1.75;;;11.20;99.90;;;;;;5032787;28;20033;-82
2024/03/25 10:17:55;;;;;;;8.95;2.95;;;11.50;99.90;;;;;;5035608;28;20087;-82
2024/03/25 10:20:22;;;;;;;10.35;1.67;;;12.00;99.90;;;;;;5035430;28;20034;-83
2024/03/25 10:22:48;;;;;;;9.68;1.80;;;12.50;99.90;;;;;;5034975;28;20051;-81
2024/03/25 10:25:27;;;;;;;10.07;1.80;;;13.10;99.90;;;;;;5035793;28;20474;-82
2024/03/25 10:28:00;;;;;;;5.80;1.20;;;13.80;99.90;;;;;;5035373;28;20018;-83
2024/03/25 10:30:27;;;;;;;9.95;1.85;;;14.50;99.90;;;;;;5033651;28;20033;-82
2024/03/25 10:32:59;;;;;;;9.77;1.70;;;15.10;99.90;;;;;;5035650;28;20101;-82
2024/03/25 10:35:30;;;;;;;8.77;1.55;;;15.30;99.90;;;;;;5034726;28;20041;-82
2024/03/25 10:38:00;;;;;;;6.88;1.65;;;15.50;99.70;;;;;;5036064;28;20056;-81
2024/03/25 10:40:31;;;;;;;14.50;2.13;;;15.70;97.00;;;;;;5035908;28;20477;-82
2024/03/25 10:43:17;;;;;;;9.07;1.48;;;16.00;95.60;;;;;;5035867;28;20095;-82
2024/03/25 10:45:49;;;;;;;6.13;1.50;;;16.50;94.10;;;;;;5034442;28;20033;-81
2024/03/25 10:48:29;;;;;;;9.15;1.63;;;16.80;94.20;;;;;;5034896;28;20056;-82
2024/03/25 10:50:56;;;;;;;6.47;1.40;;;17.10;92.30;;;;;;5033394;28;20032;-81
2024/03/25 10:53:27;;;;;;;9.07;1.73;;;17.40;91.70;;;;;;5033459;28;20029;-84
2024/03/25 10:55:54;;;;;;;7.88;1.50;;;17.70;91.10;;;;;;5033878;28;20179;-83
2024/03/25 10:58:22;;;;;;;9.43;1.83;;;18.20;89.50;;;;;;5035056;28;20140;-83
2024/03/25 11:00:56;;;;;;;7.88;1.70;;;18.50;85.20;;;;;;5035165;28;20057;-82
2024/03/25 11:03:23;;;;;;;7.80;1.80;;;18.60;80.70;;;;;;5033630;28;20539;-81
2024/03/25 11:05:49;;;;;;;6.82;1.50;;;18.50;76.50;;;;;;5034050;28;20438;-82
2024/03/25 11:08:16;;;;;;;8.02;1.50;;;18.40;75.50;;;;;;5033274;28;20504;-83
2024/03/25 11:10:47;;;;;;;5.60;1.20;;;18.50;75.10;;;;;;5033949;28;20124;-82
2024/03/25 11:13:14;;;;;;;7.63;1.17;;;18.40;73.00;;;;;;5035102;28;20113;-82
2024/03/25 11:15:44;;;;;;;8.20;1.63;;;18.20;72.00;;;;;;5035019;28;20018;-82
2024/03/25 11:18:17;;;;;;;8.75;1.70;;;18.00;70.00;;;;;;5036531;28;20029;-81
2024/03/25 11:20:44;;;;;;;6.32;1.45;;;17.80;68.40;;;;;;5036380;28;20037;-82
2024/03/25 11:23:10;;;;;;;8.20;2.28;;;17.50;68.80;;;;;;5036174;28;20151;-82
2024/03/25 11:25:37;;;;;;;8.45;1.95;;;17.30;66.50;;;;;;5033305;28;20037;-81
2024/03/25 11:28:03;;;;;;;8.68;1.70;;;17.20;67.90;;;;;;5032830;28;20026;-81
2024/03/25 11:30:31;;;;;;;7.50;1.60;;;17.30;67.90;;;;;;5032323;28;20048;-83
2024/03/25 11:32:58;;;;;;;9.77;2.58;;;17.40;68.00;;;;;;5032344;28;20093;-83
2024/03/25 11:35:24;;;;;;;9.43;1.35;;;17.80;68.40;;;;;;5032321;28;20029;-83
2024/03/25 11:37:51;;;;;;;6.50;1.45;;;18.20;68.20;;;;;;5032933;28;20549;-83
2024/03/25 11:40:17;;;;;;;9.90;1.52;;;18.70;68.60;;;;;;5031924;28;20029;-83
2024/03/25 11:42:44;;;;;;;6.40;1.25;;;19.20;68.30;;;;;;5029360;28;20064;-81
2024/03/25 11:45:17;;;;;;;7.10;1.33;;;19.80;67.80;;;;;;5028419;28;20474;-83
2024/03/25 11:47:47;;;;;;;8.60;1.40;;;20.40;63.30;;;;;;5013288;28;20041;-82
2024/03/25 11:50:14;;;;;;;5.45;1.42;;;21.00;61.30;;;;;;5013639;28;20505;-81
2024/03/25 11:52:40;;;;;;;10.18;1.63;;;21.40;61.10;;;;;;5012188;28;20062;-82
2024/03/25 11:55:08;;;;;;;5.57;1.08;;;21.80;60.10;;;;;;5013574;28;20028;-83
2024/03/25 11:57:37;;;;;;;5.95;1.17;;;22.30;59.90;;;;;;5013171;28;20067;-81
2024/03/25 12:00:05;;;;;;;7.32;1.23;;;22.60;56.80;;;;;;5013002;28;20050;-81
2024/03/25 12:02:31;;;;;;;5.93;1.10;;;22.40;56.20;;;;;;5013142;28;20030;-81
2024/03/25 12:04:57;;;;;;;4.00;1.00;;;22.30;56.60;;;;;;5012509;28;20506;-81
2024/03/25 12:07:23;;;;;;;5.22;1.13;;;22.60;56.30;;;;;;5013079;28;20101;-81
2024/03/25 12:12:34;;;;;;;6.10;1.08;;;23.70;55.50;;;;;;5013479;28;20040;-82
2024/03/25 12:15:02;;;;;;;5.00;1.25;;;24.20;52.50;;;;;;5011790;28;20053;-81
2024/03/25 12:17:28;;;;;;;5.97;1.40;;;24.40;51.70;;;;;;5028231;28;20109;-82
2024/03/25 12:20:13;;;;;;;5.28;1.20;;;24.70;51.00;;;;;;5011443;28;20026;-81
2024/03/25 12:22:38;;;;;;;4.50;1.35;;;25.00;49.20;;;;;;5013276;28;20077;-81
2024/03/25 12:25:08;;;;;;;4.07;1.10;;;25.20;48.40;;;;;;5028162;28;20430;-83
2024/03/25 12:27:36;;;;;;;5.55;1.10;;;25.40;47.60;;;;;;5013192;28;20034;-82
2024/03/25 12:30:03;;;;;;;6.97;1.45;;;25.70;47.40;;;;;;5012635;28;20018;-82
2024/03/25 12:32:46;;;;;;;4.20;0.93;;;26.00;47.50;;;;;;5012619;28;20076;-82
2024/03/25 12:35:12;;;;;;;;;;;25.90;45.60;;;;;;5028246;28;20386;-82
2024/03/25 12:37:40;;;;;;;4.25;1.05;;;25.60;43.00;;;;;;5013559;28;19905;-82
2024/03/25 12:40:08;;;;;;;4.63;1.15;;;25.50;45.40;;;;;;5023357;28;20026;-82
2024/03/25 12:42:34;;;;;;;4.05;1.00;;;25.40;44.70;;;;;;5013131;28;20015;-82
2024/03/25 12:45:00;;;;;;;3.67;1.25;;;25.00;44.80;;;;;;5012479;28;20405;-82
2024/03/25 12:47:26;;;;;;;4.88;1.65;;;24.60;43.70;;;;;;5011740;28;20105;-81
2024/03/25 12:49:52;;;;;;;5.30;1.20;;;23.90;44.20;;;;;;5011125;28;20080;-82
2024/03/25 12:52:18;;;;;;;3.72;1.23;;;23.30;45.10;;;;;;5011353;28;20018;-82
2024/03/25 12:54:44;;;;;;;6.53;1.50;;;23.00;45.50;;;;;;5011420;28;20450;-81
2024/03/25 12:57:11;;;;;;;4.78;1.30;;;23.10;45.70;;;;;;5011562;28;20026;-83